Airfield :
LOGIN :

Register | Disclaimer

   EN    FR    IT 

 










Legend :    VFR   Marginal VFR   IFR   Intensive IFR   Very Intensive IFR
Visi :
Ceiling :
>= 8 km
>= 3000ft
5 to 8 km
1000 to 3000 ft
1500m to 5 km
500 to 1000 ft
800 to 1500m
200 to 500 ft
< 800m
< 200 ft
Symbols :   Thunderstorms  Fog  Heavy snow  Heavy precipitations  Wind > 20 kt
SIGMETs :     Misc.  Thunderstorms  Icing  Turbulence  Mountain Waves  Volcanic Ashes






- Airport Elevation : 2220 ft


LOXZ - Zeltweg AB

CURRENT METAR :
  • 041120Z 08006KT 050V110 9999 FEW060CB BKN110 25/16 Q1020 NOSIG

EXPIRED METARs :
  • 041050Z 10005KT 050V120 9999 FEW060CB BKN110 24/14 Q1021 NOSIG
  • 041020Z VRB02KT 9999 FEW060 BKN110 22/16 Q1021 NOSIG
  • 040950Z VRB02KT 9999 FEW060 BKN110 22/16 Q1021 NOSIG
  • 040920Z VRB03KT 9999 FEW060 BKN110 21/16 Q1021 NOSIG
  • 040850Z VRB01KT 9999 FEW060 BKN120 21/16 Q1021 NOSIG

TAF TAF LOXZ
Valid from the 04 at 12:00 until the 04 at 21:00 UTC


041115Z 0412/0421 VRB03KT 9999 FEW060 SCT120
TEMPO 0412/0420 SCT050CB SCT120 BKN300
TEMPO 0416/0420 VRB15G25KT 4000 TSRA SCT010 BKN050CB



MET'MAP, your aeronautical weather chart ! - Copyright ORBIFLY December 2007 - Disclaimer

ORBIFLY MET'MAP TEAM :

Programming & Development : Alexandra Zaïnal
Original concept : Baudouin d'Aumeries
Technical & hardware support : Manuel Goepfert
Assistance : Marc-Olivier Méhu




SOURCES & CREDITS :

   NOAA